createdAt,value
2019-04-26T00:00:15.918Z,100160.13
2019-04-26T00:02:52.334Z,100160.67
2019-04-26T00:05:34.493Z,100161.58
2019-04-26T00:07:55.073Z,100168.38
2019-04-26T00:10:43.120Z,100160.25
2019-04-26T00:13:33.556Z,100166.43
2019-04-26T00:16:10.153Z,100166.43
2019-04-26T00:18:41.751Z,100157.45
2019-04-26T00:21:12.146Z,100157.38
2019-04-26T00:23:43.098Z,100158.91
2019-04-26T00:26:13.966Z,100160.69
2019-04-26T00:28:44.815Z,100161.41
2019-04-26T00:31:15.649Z,100160.45
2019-04-26T00:33:46.729Z,100156.05
2019-04-26T00:36:17.121Z,100154.98
2019-04-26T00:38:47.371Z,100150.33
2019-04-26T00:41:18.632Z,100150.02
2019-04-26T00:43:50.593Z,100147.62
2019-04-26T00:46:25.397Z,100150.02
2019-04-26T00:49:00.392Z,100145.30
2019-04-26T00:51:31.375Z,100148.99
2019-04-26T00:54:03.969Z,100148.81
2019-04-26T00:56:36.672Z,100148.67
2019-04-26T00:59:10.886Z,100138.77
2019-04-26T01:01:44.273Z,100139.70
2019-04-26T01:04:15.923Z,100135.08
2019-04-26T01:06:48.573Z,100134.94
2019-04-26T01:09:19.994Z,100139.56
2019-04-26T01:11:50.612Z,100136.72
2019-04-26T01:14:22.107Z,100131.14
2019-04-26T01:16:52.566Z,100131.75
2019-04-26T01:19:24.834Z,100133.59
2019-04-26T01:22:00.026Z,100126.78
2019-04-26T01:24:35.426Z,100124.80
2019-04-26T01:27:08.118Z,100123.91
2019-04-26T01:29:38.760Z,100128.91
2019-04-26T01:32:12.572Z,100132.36
2019-04-26T01:34:47.173Z,100129.61
2019-04-26T01:37:19.279Z,100128.58
2019-04-26T01:39:56.552Z,100127.72
2019-04-26T01:42:28.624Z,100127.85
2019-04-26T01:45:21.666Z,100130.22
2019-04-26T01:47:57.235Z,100126.81
2019-04-26T01:50:29.833Z,100120.76
2019-04-26T01:53:01.138Z,100119.45
2019-04-26T01:55:33.645Z,100119.19
2019-04-26T01:58:07.610Z,100123.80
2019-04-26T02:00:40.771Z,100115.88
2019-04-26T02:03:19.489Z,100116.07
2019-04-26T02:05:50.101Z,100112.80
2019-04-26T02:08:22.079Z,100107.23
2019-04-26T02:10:52.897Z,100110.84
2019-04-26T02:13:25.132Z,100107.95
2019-04-26T02:15:56.585Z,100111.23
2019-04-26T02:18:27.390Z,100113.98
2019-04-26T02:21:10.273Z,100104.73
2019-04-26T02:23:48.562Z,100107.03
2019-04-26T02:26:37.042Z,100102.16
2019-04-26T02:29:17.915Z,100102.75
2019-04-26T02:31:58.407Z,100108.32
2019-04-26T02:34:33.854Z,100108.13
2019-04-26T02:37:09.540Z,100109.63
2019-04-26T02:39:41.716Z,100097.77
2019-04-26T02:42:29.894Z,100093.95
2019-04-26T02:45:18.669Z,100090.23
2019-04-26T02:47:59.102Z,100084.91
2019-04-26T02:50:43.374Z,100086.34
2019-04-26T02:53:48.826Z,100087.40
2019-04-26T02:56:25.054Z,100087.53
2019-04-26T02:59:01.346Z,100089.90
2019-04-26T03:01:35.693Z,100084.65
2019-04-26T03:04:04.672Z,100081.77
2019-04-26T03:06:38.388Z,100084.91
2019-04-26T03:09:09.063Z,100080.06
2019-04-26T03:11:43.377Z,100077.24
2019-04-26T03:14:18.032Z,100077.24
2019-04-26T03:16:58.935Z,100080.06
2019-04-26T03:19:35.718Z,100078.49
2019-04-26T03:22:08.883Z,100083.48
2019-04-26T03:25:20.110Z,100087.67
2019-04-26T03:27:56.316Z,100085.58
2019-04-26T03:30:39.050Z,100089.20
2019-04-26T03:33:29.334Z,100089.60
2019-04-26T03:36:42.406Z,100084.87
2019-04-26T03:39:22.426Z,100081.73
2019-04-26T03:42:20.508Z,100080.16
2019-04-26T03:45:14.656Z,100087.89
2019-04-26T03:48:08.883Z,100080.33
2019-04-26T03:50:55.334Z,100087.14
2019-04-26T03:53:30.629Z,100089.57
2019-04-26T03:56:31.671Z,100098.95
2019-04-26T03:59:14.394Z,100093.44
2019-04-26T04:01:49.429Z,100091.73
2019-04-26T04:04:37.105Z,100099.16
2019-04-26T04:07:09.834Z,100088.91
2019-04-26T04:09:46.859Z,100085.67
2019-04-26T04:12:30.560Z,100079.94
2019-04-26T04:15:15.772Z,100084.30
2019-04-26T04:17:53.512Z,100085.58
2019-04-26T04:20:40.376Z,100082.38
2019-04-26T04:23:48.848Z,100090.95
2019-04-26T04:26:26.554Z,100083.69
2019-04-26T04:29:43.037Z,100089.10
2019-04-26T04:32:27.840Z,100085.87
2019-04-26T04:35:01.249Z,100087.66
2019-04-26T04:37:34.497Z,100090.31
2019-04-26T04:40:24.280Z,100089.38
2019-04-26T04:43:07.883Z,100091.04
2019-04-26T04:46:02.133Z,100082.79
2019-04-26T04:48:43.321Z,100070.89
2019-04-26T04:51:36.413Z,100080.87
2019-04-26T04:54:32.426Z,100082.22
2019-04-26T04:57:08.796Z,100078.69
2019-04-26T04:59:48.148Z,100081.26
2019-04-26T05:02:55.276Z,100077.51
2019-04-26T05:06:19.111Z,100083.92
2019-04-26T05:09:12.935Z,100081.73
2019-04-26T05:12:00.134Z,100084.73
2019-04-26T05:14:48.067Z,100083.22
2019-04-26T05:17:38.057Z,100081.86
2019-04-26T05:20:38.467Z,100081.45
2019-04-26T05:23:20.488Z,100070.65
2019-04-26T05:26:40.650Z,100072.70
2019-04-26T05:29:40.083Z,100065.23
2019-04-26T05:32:30.395Z,100090.54
2019-04-26T05:35:41.677Z,100069.16
2019-04-26T05:38:39.484Z,100070.32
2019-04-26T05:41:35.486Z,100070.61
2019-04-26T05:44:27.185Z,100080.86
2019-04-26T05:47:12.652Z,100074.51
2019-04-26T05:50:10.143Z,100092.93
2019-04-26T05:53:07.480Z,100069.66
2019-04-26T05:56:11.474Z,100075.23
2019-04-26T05:59:06.897Z,100077.22
2019-04-26T06:01:59.052Z,100082.33
2019-04-26T06:04:53.238Z,100074.70
2019-04-26T06:07:56.357Z,100078.58
2019-04-26T06:10:33.666Z,100076.55
2019-04-26T06:13:11.534Z,100077.03
2019-04-26T06:15:56.367Z,100086.23
2019-04-26T06:18:55.127Z,100089.95
2019-04-26T06:21:53.718Z,100095.17
2019-04-26T06:24:52.652Z,100087.97
2019-04-26T06:27:54.465Z,100094.34
2019-04-26T06:30:50.652Z,100094.28
2019-04-26T06:33:35.811Z,100091.20
2019-04-26T06:36:12.077Z,100101.37
2019-04-26T06:39:04.193Z,100110.30
2019-04-26T06:42:08.201Z,100104.73
2019-04-26T06:44:51.353Z,100100.62
2019-04-26T06:47:50.081Z,100100.91
2019-04-26T06:50:27.730Z,100109.75
2019-04-26T06:53:07.145Z,100092.41
2019-04-26T06:55:42.076Z,100106.02
2019-04-26T06:58:41.396Z,100107.19
2019-04-26T07:01:24.337Z,100112.49
2019-04-26T07:04:09.900Z,100110.39
2019-04-26T07:07:15.241Z,100118.45
2019-04-26T07:10:04.884Z,100120.75
2019-04-26T07:12:54.705Z,100098.84
2019-04-26T07:15:44.871Z,100111.02
2019-04-26T07:18:34.395Z,100094.20
2019-04-26T07:21:35.031Z,100088.27
2019-04-26T07:24:31.385Z,100065.09
2019-04-26T07:27:33.686Z,100080.30
2019-04-26T07:30:09.984Z,100095.04
2019-04-26T07:32:48.176Z,100096.26
2019-04-26T07:35:39.626Z,100078.62
2019-04-26T07:38:49.229Z,100083.30
2019-04-26T07:41:42.861Z,100058.77
2019-04-26T07:44:31.965Z,100075.30
2019-04-26T07:47:17.346Z,100046.12
2019-04-26T07:50:14.210Z,100060.97
2019-04-26T07:53:04.931Z,100046.83
2019-04-26T07:55:42.692Z,100048.38
2019-04-26T07:58:46.148Z,100053.08
2019-04-26T08:01:42.324Z,100051.91
2019-04-26T08:04:20.242Z,100028.36
2019-04-26T08:06:59.135Z,100037.37
2019-04-26T08:09:34.027Z,100040.84
2019-04-26T08:12:07.998Z,100024.63
2019-04-26T08:14:49.710Z,100017.17
2019-04-26T08:17:27.680Z,100030.07
2019-04-26T08:20:01.160Z,100016.34
2019-04-26T08:22:35.911Z,100016.62
2019-04-26T08:25:10.402Z,100012.95
2019-04-26T08:27:42.532Z,100011.41
2019-04-26T08:30:19.211Z,99995.67
2019-04-26T08:33:02.160Z,100015.77
2019-04-26T08:35:36.143Z,100003.08
2019-04-26T08:38:15.994Z,100007.88
2019-04-26T08:40:44.657Z,99976.85
2019-04-26T08:43:30.519Z,99995.83
2019-04-26T08:46:12.591Z,99992.48
2019-04-26T08:48:52.797Z,99980.08
2019-04-26T08:51:24.147Z,99976.95
2019-04-26T08:54:00.376Z,99949.99
2019-04-26T08:56:38.106Z,99959.61
2019-04-26T08:59:25.255Z,99961.24
2019-04-26T09:02:17.004Z,99952.25
2019-04-26T09:04:54.075Z,99960.05
2019-04-26T09:07:29.025Z,99927.92
2019-04-26T09:10:10.698Z,99941.64
2019-04-26T09:12:37.748Z,99939.34
2019-04-26T09:15:14.563Z,99934.67
2019-04-26T09:17:44.913Z,99937.12
2019-04-26T09:20:27.774Z,99935.61
2019-04-26T09:22:49.697Z,99929.75
2019-04-26T09:25:34.475Z,99930.74
2019-04-26T09:28:13.808Z,99919.52
2019-04-26T09:30:48.418Z,99933.66
2019-04-26T09:33:20.352Z,99919.91
2019-04-26T09:35:51.058Z,99916.48
2019-04-26T09:38:21.381Z,99917.58
2019-04-26T09:40:52.523Z,99921.75
2019-04-26T09:43:28.783Z,99915.16
2019-04-26T09:46:04.661Z,99903.67
2019-04-26T09:48:41.560Z,99905.08
2019-04-26T09:51:12.634Z,99899.69
2019-04-26T09:53:43.720Z,99899.05
2019-04-26T09:56:15.008Z,99894.81
2019-04-26T09:58:45.676Z,99889.96
2019-04-26T10:01:19.757Z,99865.63
2019-04-26T10:03:49.812Z,99893.66
2019-04-26T10:06:20.073Z,99900.68
2019-04-26T10:08:52.453Z,99886.34
2019-04-26T10:11:23.894Z,99880.20
2019-04-26T10:13:58.939Z,99889.20
2019-04-26T10:16:49.231Z,99866.08
2019-04-26T10:19:21.591Z,99858.09
2019-04-26T10:21:52.235Z,99853.47
2019-04-26T10:24:23.140Z,99852.16
2019-04-26T10:26:55.473Z,99843.86
2019-04-26T10:29:26.938Z,99839.36
2019-04-26T10:31:57.184Z,99850.63
2019-04-26T10:34:28.444Z,99849.48
2019-04-26T10:37:01.478Z,99849.02
2019-04-26T10:39:32.495Z,99847.11
2019-04-26T10:42:02.696Z,99844.67
2019-04-26T10:44:35.648Z,99843.64
2019-04-26T10:47:06.096Z,99834.80
2019-04-26T10:49:44.082Z,99828.14
2019-04-26T10:52:18.814Z,99827.05
2019-04-26T10:54:50.779Z,99830.25
2019-04-26T10:57:27.241Z,99823.72
2019-04-26T10:59:59.212Z,99824.06
2019-04-26T11:02:29.569Z,99825.91
2019-04-26T11:05:01.353Z,99828.94
2019-04-26T11:07:32.342Z,99821.77
2019-04-26T11:10:05.738Z,99823.33
2019-04-26T11:12:39.590Z,99829.45
2019-04-26T11:15:09.147Z,99827.72
2019-04-26T11:17:39.613Z,99814.52
2019-04-26T11:20:11.969Z,99820.23
2019-04-26T11:22:42.903Z,99816.67
2019-04-26T11:25:14.551Z,99811.09
2019-04-26T11:28:01.258Z,99808.39
2019-04-26T11:30:36.383Z,99799.64
2019-04-26T11:33:10.511Z,99796.11
2019-04-26T11:35:39.382Z,99802.13
2019-04-26T11:38:09.789Z,99793.91
2019-04-26T11:40:44.360Z,99792.19
2019-04-26T11:43:15.844Z,99785.78
2019-04-26T11:45:49.359Z,99793.14
2019-04-26T11:48:19.067Z,99797.86
2019-04-26T11:50:52.314Z,99788.84
2019-04-26T11:53:21.538Z,99782.14
2019-04-26T11:55:51.761Z,99767.88
2019-04-26T11:58:23.727Z,99771.38
2019-04-26T12:00:55.802Z,99764.97
2019-04-26T12:03:26.053Z,99769.62
2019-04-26T12:05:57.984Z,99775.61
2019-04-26T12:08:39.207Z,99777.79
2019-04-26T12:11:18.375Z,99768.75
2019-04-26T12:13:43.696Z,99764.27
2019-04-26T12:16:14.700Z,99771.14
2019-04-26T12:18:47.008Z,99762.61
2019-04-26T12:21:17.437Z,99761.31
2019-04-26T12:23:51.331Z,99761.00
2019-04-26T12:26:21.617Z,99758.16
2019-04-26T12:28:51.990Z,99758.31
2019-04-26T12:31:22.918Z,99757.65
2019-04-26T12:33:54.472Z,99751.31
2019-04-26T12:36:24.696Z,99750.59
2019-04-26T12:38:58.221Z,99744.63
2019-04-26T12:41:39.960Z,99752.38
2019-04-26T12:44:03.238Z,99746.99
2019-04-26T12:46:40.603Z,99758.08
2019-04-26T12:49:11.265Z,99749.85
2019-04-26T12:51:42.806Z,99742.11
2019-04-26T12:54:14.072Z,99739.66
2019-04-26T12:56:44.443Z,99740.98
2019-04-26T12:59:16.175Z,99748.50
2019-04-26T13:01:47.847Z,99737.41
2019-04-26T13:04:18.667Z,99731.15
2019-04-26T13:07:06.960Z,99730.53
2019-04-26T13:09:38.578Z,99730.20
2019-04-26T13:12:13.331Z,99718.79
2019-04-26T13:14:54.275Z,99712.38
2019-04-26T13:17:26.389Z,99720.59
2019-04-26T13:19:58.294Z,99712.70
2019-04-26T13:22:31.890Z,99702.94
2019-04-26T13:25:01.073Z,99706.11
2019-04-26T13:27:31.284Z,99707.48
2019-04-26T13:30:06.769Z,99694.25
2019-04-26T13:32:36.818Z,99705.66
2019-04-26T13:35:11.423Z,99694.59
2019-04-26T13:37:39.828Z,99693.58
2019-04-26T13:40:10.469Z,99690.36
2019-04-26T13:42:40.881Z,99692.58
2019-04-26T13:45:15.080Z,99688.97
2019-04-26T13:47:46.658Z,99682.22
2019-04-26T13:50:22.250Z,99691.47
2019-04-26T13:52:51.034Z,99693.14
2019-04-26T13:55:25.382Z,99681.23
2019-04-26T13:57:56.012Z,99683.35
2019-04-26T14:00:27.986Z,99685.22
2019-04-26T14:02:58.262Z,99689.47
2019-04-26T14:05:28.964Z,99680.45
2019-04-26T14:07:59.387Z,99677.11
2019-04-26T14:10:29.618Z,99669.72
2019-04-26T14:13:01.201Z,99683.59
2019-04-26T14:15:32.158Z,99677.38
2019-04-26T14:18:04.344Z,99674.34
2019-04-26T14:20:34.516Z,99667.61
2019-04-26T14:23:06.760Z,99670.77
2019-04-26T14:25:57.057Z,99665.54
2019-04-26T14:28:27.361Z,99662.78
2019-04-26T14:30:57.600Z,99676.53
2019-04-26T14:33:30.819Z,99678.70
2019-04-26T14:36:00.314Z,99670.50
2019-04-26T14:38:39.276Z,99670.22
2019-04-26T14:41:04.267Z,99667.22
2019-04-26T14:43:41.099Z,99659.16
2019-04-26T14:46:10.353Z,99660.66
2019-04-26T14:48:40.598Z,99665.25
2019-04-26T14:51:12.542Z,99661.91
2019-04-26T14:53:43.825Z,99660.91
2019-04-26T14:56:14.090Z,99664.94
2019-04-26T14:58:46.083Z,99660.92
2019-04-26T15:01:35.266Z,99666.64
2019-04-26T15:04:28.185Z,99660.11
2019-04-26T15:06:58.042Z,99653.61
2019-04-26T15:09:33.084Z,99659.51
2019-04-26T15:12:03.464Z,99666.55
2019-04-26T15:14:33.699Z,99655.32
2019-04-26T15:17:04.453Z,99659.36
2019-04-26T15:19:35.290Z,99658.00
2019-04-26T15:22:10.463Z,99662.70
2019-04-26T15:24:38.745Z,99648.95
2019-04-26T15:27:10.563Z,99653.31
2019-04-26T15:29:42.328Z,99644.75
2019-04-26T15:32:13.153Z,99640.59
2019-04-26T15:34:43.566Z,99638.59
2019-04-26T15:37:16.091Z,99647.97
2019-04-26T15:40:03.722Z,99632.20
2019-04-26T15:42:42.548Z,99631.55
2019-04-26T15:45:25.238Z,99628.41
2019-04-26T15:48:03.352Z,99632.27
2019-04-26T15:50:35.297Z,99629.58
2019-04-26T15:53:06.642Z,99631.94
2019-04-26T15:55:40.309Z,99625.90
2019-04-26T15:58:10.242Z,99620.67
2019-04-26T16:00:40.642Z,99627.88
2019-04-26T16:03:12.839Z,99629.56
2019-04-26T16:05:43.434Z,99627.72
2019-04-26T16:08:14.143Z,99624.38
2019-04-26T16:10:44.803Z,99626.72
2019-04-26T16:13:20.354Z,99625.55
2019-04-26T16:15:48.759Z,99626.92
2019-04-26T16:18:19.561Z,99625.24
2019-04-26T16:20:49.776Z,99619.37
2019-04-26T16:23:20.434Z,99619.03
2019-04-26T16:25:52.568Z,99616.69
2019-04-26T16:28:27.412Z,99618.53
2019-04-26T16:31:17.771Z,99616.34
2019-04-26T16:33:49.691Z,99616.84
2019-04-26T16:36:19.986Z,99622.53
2019-04-26T16:38:54.792Z,99621.01
2019-04-26T16:41:27.166Z,99613.97
2019-04-26T16:43:57.923Z,99607.41
2019-04-26T16:46:28.283Z,99610.73
2019-04-26T16:49:02.293Z,99604.36
2019-04-26T16:51:30.473Z,99609.36
2019-04-26T16:54:08.729Z,99605.35
2019-04-26T16:56:36.023Z,99609.03
2019-04-26T16:59:05.380Z,99615.34
2019-04-26T17:01:38.230Z,99609.57
2019-04-26T17:04:11.103Z,99609.02
2019-04-26T17:06:44.359Z,99603.81
2019-04-26T17:09:14.122Z,99612.11
2019-04-26T17:11:44.133Z,99608.02
2019-04-26T17:14:14.786Z,99606.23
2019-04-26T17:16:45.180Z,99604.83
2019-04-26T17:19:19.858Z,99598.90
2019-04-26T17:22:00.989Z,99607.01
2019-04-26T17:24:30.432Z,99600.26
2019-04-26T17:27:05.344Z,99601.78
2019-04-26T17:29:35.652Z,99597.20
2019-04-26T17:32:09.133Z,99601.72
2019-04-26T17:34:40.460Z,99601.88
2019-04-26T17:37:14.749Z,99597.72
2019-04-26T17:39:43.142Z,99598.84
2019-04-26T17:42:14.769Z,99595.44
2019-04-26T17:44:45.491Z,99602.11
2019-04-26T17:47:15.850Z,99600.20
2019-04-26T17:49:46.110Z,99597.98
2019-04-26T17:52:16.317Z,99594.52
2019-04-26T17:54:49.671Z,99598.50
2019-04-26T17:57:33.241Z,99592.20
2019-04-26T17:59:51.702Z,99596.41
2019-04-26T18:02:40.192Z,99596.27
2019-04-26T18:05:00.585Z,99592.03
2019-04-26T18:07:40.192Z,99591.95
2019-04-26T18:10:04.333Z,99594.66
2019-04-26T18:12:32.706Z,99594.91
2019-04-26T18:15:06.255Z,99594.81
2019-04-26T18:17:40.068Z,99593.09
2019-04-26T18:20:23.829Z,99599.00
2019-04-26T18:22:58.880Z,99599.00
2019-04-26T18:25:30.067Z,99607.33
2019-04-26T18:28:00.817Z,99606.80
2019-04-26T18:30:32.885Z,99600.23
2019-04-26T18:33:03.488Z,99604.91
2019-04-26T18:35:34.117Z,99604.36
2019-04-26T18:38:08.590Z,99604.42
2019-04-26T18:40:58.931Z,99602.83
2019-04-26T18:43:12.593Z,99607.22
2019-04-26T18:45:40.904Z,99610.89
2019-04-26T18:48:13.744Z,99613.09
2019-04-26T18:50:45.731Z,99614.66
2019-04-26T18:53:19.643Z,99620.81
2019-04-26T18:55:50.837Z,99617.20
2019-04-26T18:58:21.389Z,99619.99
2019-04-26T19:00:53.108Z,99611.33
2019-04-26T19:03:29.566Z,99608.44
2019-04-26T19:05:58.445Z,99613.55
2019-04-26T19:08:28.888Z,99616.58
2019-04-26T19:11:01.818Z,99610.85
2019-04-26T19:13:47.742Z,99608.70
2019-04-26T19:16:22.758Z,99613.64
2019-04-26T19:19:01.226Z,99614.25
2019-04-26T19:21:38.949Z,99613.64
2019-04-26T19:24:11.675Z,99622.80
2019-04-26T19:26:38.969Z,99612.80
2019-04-26T19:29:16.267Z,99611.82
2019-04-26T19:31:42.882Z,99613.98
2019-04-26T19:34:13.145Z,99609.39
2019-04-26T19:36:43.384Z,99615.16
2019-04-26T19:39:14.736Z,99608.06
2019-04-26T19:41:46.609Z,99606.39
2019-04-26T19:44:18.935Z,99607.20
2019-04-26T19:46:58.082Z,99604.39
2019-04-26T19:49:36.643Z,99600.27
2019-04-26T19:52:24.039Z,99601.97
2019-04-26T19:55:11.424Z,99596.72
2019-04-26T19:57:54.032Z,99599.65
2019-04-26T20:00:24.420Z,99597.20
2019-04-26T20:02:54.678Z,99593.03
2019-04-26T20:05:26.124Z,99592.12
2019-04-26T20:07:58.402Z,99595.05
2019-04-26T20:10:28.331Z,99594.79
2019-04-26T20:12:58.961Z,99587.77
2019-04-26T20:15:29.327Z,99587.36
2019-04-26T20:18:03.422Z,99590.91
2019-04-26T20:20:35.871Z,99588.09
2019-04-26T20:23:07.700Z,99585.29
2019-04-26T20:25:36.030Z,99587.05
2019-04-26T20:28:06.316Z,99586.77
2019-04-26T20:30:51.495Z,99592.26
2019-04-26T20:33:22.462Z,99589.62
2019-04-26T20:35:53.029Z,99589.14
2019-04-26T20:38:23.270Z,99586.50
2019-04-26T20:40:54.784Z,99584.92
2019-04-26T20:43:26.642Z,99582.06
2019-04-26T20:46:12.464Z,99583.60
2019-04-26T20:48:30.134Z,99578.11
2019-04-26T20:51:02.224Z,99581.53
2019-04-26T20:53:39.914Z,99579.27
2019-04-26T20:56:09.864Z,99580.05
2019-04-26T20:58:45.437Z,99571.61
2019-04-26T21:01:14.279Z,99576.59
2019-04-26T21:03:46.154Z,99572.30
2019-04-26T21:06:17.255Z,99566.70
2019-04-26T21:08:47.963Z,99560.98
2019-04-26T21:11:18.721Z,99561.23
2019-04-26T21:13:49.153Z,99564.20
2019-04-26T21:16:19.379Z,99564.44
2019-04-26T21:18:49.591Z,99570.11
2019-04-26T21:21:21.531Z,99564.97
2019-04-26T21:23:52.670Z,99564.62
2019-04-26T21:26:34.047Z,99564.20
2019-04-26T21:29:24.296Z,99554.05
2019-04-26T21:31:59.435Z,99560.47
2019-04-26T21:34:34.460Z,99556.80
2019-04-26T21:37:11.329Z,99555.03
2019-04-26T21:39:59.705Z,99555.33
2019-04-26T21:42:30.275Z,99555.42
2019-04-26T21:45:00.605Z,99553.45
2019-04-26T21:47:35.513Z,99557.79
2019-04-26T21:50:07.743Z,99552.84
2019-04-26T21:52:38.403Z,99551.54
2019-04-26T21:55:09.991Z,99545.91
2019-04-26T21:57:43.959Z,99545.44
2019-04-26T22:00:34.722Z,99542.30
2019-04-26T22:03:07.934Z,99546.26
2019-04-26T22:05:39.278Z,99540.09
2019-04-26T22:08:17.416Z,99541.78
2019-04-26T22:10:47.901Z,99536.70
2019-04-26T22:13:28.604Z,99533.22
2019-04-26T22:16:30.675Z,99529.55
2019-04-26T22:18:50.555Z,99529.55
2019-04-26T22:21:40.663Z,99533.87
2019-04-26T22:24:20.701Z,99526.53
2019-04-26T22:26:53.147Z,99535.08
2019-04-26T22:29:23.592Z,99531.06
2019-04-26T22:31:54.868Z,99530.39
2019-04-26T22:34:25.299Z,99526.34
2019-04-26T22:36:55.670Z,99528.02
2019-04-26T22:39:27.519Z,99525.38
2019-04-26T22:41:58.399Z,99523.11
2019-04-26T22:44:34.605Z,99525.16
2019-04-26T22:47:14.045Z,99521.23
2019-04-26T22:49:45.445Z,99527.69
2019-04-26T22:52:18.884Z,99528.87
2019-04-26T22:54:49.438Z,99519.86
2019-04-26T22:57:20.474Z,99519.66
2019-04-26T22:59:50.822Z,99518.90
2019-04-26T23:02:26.967Z,99521.70
2019-04-26T23:04:55.963Z,99518.84
2019-04-26T23:07:26.590Z,99525.11
2019-04-26T23:09:57.236Z,99522.19
2019-04-26T23:12:35.171Z,99528.94
2019-04-26T23:15:14.311Z,99519.91
2019-04-26T23:17:48.207Z,99517.66
2019-04-26T23:20:20.506Z,99521.22
2019-04-26T23:22:50.850Z,99513.98
2019-04-26T23:25:21.423Z,99512.46
2019-04-26T23:27:56.721Z,99514.41
2019-04-26T23:30:27.720Z,99516.57
2019-04-26T23:32:56.987Z,99511.58
2019-04-26T23:35:27.255Z,99516.06
2019-04-26T23:38:00.915Z,99510.34
2019-04-26T23:40:29.402Z,99511.75
2019-04-26T23:42:59.676Z,99510.31
2019-04-26T23:45:30.101Z,99505.48
2019-04-26T23:48:00.358Z,99509.04
2019-04-26T23:50:30.577Z,99515.59
2019-04-26T23:53:00.870Z,99515.67
2019-04-26T23:55:31.173Z,99520.23
2019-04-26T23:58:04.980Z,99518.41
